sensor_id;sensor_type;location;lat;lon;timestamp;temperature;humidity
10986;DHT22;5546;48.714;8.738;2022-11-18T00:01:21;11.70;99.90
10986;DHT22;5546;48.714;8.738;2022-11-18T00:03:47;12.00;99.70
10986;DHT22;5546;48.714;8.738;2022-11-18T00:06:19;12.00;99.20
10986;DHT22;5546;48.714;8.738;2022-11-18T00:08:44;12.00;99.40
10986;DHT22;5546;48.714;8.738;2022-11-18T00:11:12;12.10;99.30
10986;DHT22;5546;48.714;8.738;2022-11-18T00:13:58;12.20;99.00
10986;DHT22;5546;48.714;8.738;2022-11-18T00:16:43;12.20;98.60
10986;DHT22;5546;48.714;8.738;2022-11-18T00:19:09;12.20;98.90
10986;DHT22;5546;48.714;8.738;2022-11-18T00:21:35;12.10;99.00
10986;DHT22;5546;48.714;8.738;2022-11-18T00:24:00;11.80;99.10
10986;DHT22;5546;48.714;8.738;2022-11-18T00:26:26;11.30;99.90
10986;DHT22;5546;48.714;8.738;2022-11-18T00:28:51;11.30;99.90
10986;DHT22;5546;48.714;8.738;2022-11-18T00:31:17;11.30;99.90
10986;DHT22;5546;48.714;8.738;2022-11-18T00:33:42;11.10;99.90
10986;DHT22;5546;48.714;8.738;2022-11-18T00:36:10;11.00;99.90
10986;DHT22;5546;48.714;8.738;2022-11-18T00:38:37;11.10;99.90
10986;DHT22;5546;48.714;8.738;2022-11-18T00:41:05;11.40;99.90
10986;DHT22;5546;48.714;8.738;2022-11-18T00:43:31;11.80;99.80
10986;DHT22;5546;48.714;8.738;2022-11-18T00:45:57;11.80;99.90
10986;DHT22;5546;48.714;8.738;2022-11-18T00:48:23;11.90;99.70
10986;DHT22;5546;48.714;8.738;2022-11-18T00:50:53;11.90;99.90
10986;DHT22;5546;48.714;8.738;2022-11-18T00:53:21;12.10;99.50
10986;DHT22;5546;48.714;8.738;2022-11-18T00:55:47;12.00;99.30
10986;DHT22;5546;48.714;8.738;2022-11-18T00:58:13;11.80;99.80
10986;DHT22;5546;48.714;8.738;2022-11-18T01:00:45;12.10;99.10
10986;DHT22;5546;48.714;8.738;2022-11-18T01:03:11;12.10;99.10
10986;DHT22;5546;48.714;8.738;2022-11-18T01:05:37;12.10;99.00
10986;DHT22;5546;48.714;8.738;2022-11-18T01:08:07;12.20;99.10
10986;DHT22;5546;48.714;8.738;2022-11-18T01:10:34;12.10;99.30
10986;DHT22;5546;48.714;8.738;2022-11-18T01:13:01;12.00;99.40
10986;DHT22;5546;48.714;8.738;2022-11-18T01:15:54;11.90;99.50
10986;DHT22;5546;48.714;8.738;2022-11-18T01:18:25;11.70;99.70
10986;DHT22;5546;48.714;8.738;2022-11-18T01:20:51;11.70;99.90
10986;DHT22;5546;48.714;8.738;2022-11-18T01:23:18;11.90;99.70
10986;DHT22;5546;48.714;8.738;2022-11-18T01:25:46;11.90;99.30
10986;DHT22;5546;48.714;8.738;2022-11-18T01:28:12;11.80;99.50
10986;DHT22;5546;48.714;8.738;2022-11-18T01:30:39;11.80;99.90
10986;DHT22;5546;48.714;8.738;2022-11-18T01:33:05;12.00;99.60
10986;DHT22;5546;48.714;8.738;2022-11-18T01:35:35;11.80;99.30
10986;DHT22;5546;48.714;8.738;2022-11-18T01:38:01;11.80;99.60
10986;DHT22;5546;48.714;8.738;2022-11-18T01:40:27;11.70;99.90
10986;DHT22;5546;48.714;8.738;2022-11-18T01:42:59;11.90;99.30
10986;DHT22;5546;48.714;8.738;2022-11-18T01:45:32;11.90;99.60
10986;DHT22;5546;48.714;8.738;2022-11-18T01:48:16;12.00;99.60
10986;DHT22;5546;48.714;8.738;2022-11-18T01:50:54;12.00;99.00
10986;DHT22;5546;48.714;8.738;2022-11-18T01:53:25;12.00;99.30
10986;DHT22;5546;48.714;8.738;2022-11-18T01:55:53;11.90;99.50
10986;DHT22;5546;48.714;8.738;2022-11-18T01:58:38;11.90;99.80
10986;DHT22;5546;48.714;8.738;2022-11-18T02:01:05;12.10;99.30
10986;DHT22;5546;48.714;8.738;2022-11-18T02:03:32;12.00;99.60
10986;DHT22;5546;48.714;8.738;2022-11-18T02:05:59;11.30;99.90
10986;DHT22;5546;48.714;8.738;2022-11-18T02:08:26;11.20;99.90
10986;DHT22;5546;48.714;8.738;2022-11-18T02:10:53;11.20;99.90
10986;DHT22;5546;48.714;8.738;2022-11-18T02:13:18;11.30;99.90
10986;DHT22;5546;48.714;8.738;2022-11-18T02:15:45;11.30;99.90
10986;DHT22;5546;48.714;8.738;2022-11-18T02:20:47;11.40;99.90
10986;DHT22;5546;48.714;8.738;2022-11-18T02:23:36;11.60;99.90
10986;DHT22;5546;48.714;8.738;2022-11-18T02:26:15;11.70;99.90
10986;DHT22;5546;48.714;8.738;2022-11-18T02:29:19;11.70;99.90
10986;DHT22;5546;48.714;8.738;2022-11-18T02:32:05;11.90;99.80
10986;DHT22;5546;48.714;8.738;2022-11-18T02:37:27;11.70;99.90
10986;DHT22;5546;48.714;8.738;2022-11-18T02:39:57;11.70;99.90
10986;DHT22;5546;48.714;8.738;2022-11-18T02:42:25;11.80;99.90
10986;DHT22;5546;48.714;8.738;2022-11-18T02:44:56;11.80;99.40
10986;DHT22;5546;48.714;8.738;2022-11-18T02:47:23;11.80;99.70
10986;DHT22;5546;48.714;8.738;2022-11-18T02:49:54;11.70;99.90
10986;DHT22;5546;48.714;8.738;2022-11-18T02:52:21;11.90;99.50
10986;DHT22;5546;48.714;8.738;2022-11-18T02:54:49;11.90;99.80
10986;DHT22;5546;48.714;8.738;2022-11-18T02:57:16;12.20;99.00
10986;DHT22;5546;48.714;8.738;2022-11-18T02:59:43;12.20;99.00
10986;DHT22;5546;48.714;8.738;2022-11-18T03:02:15;12.20;99.30
10986;DHT22;5546;48.714;8.738;2022-11-18T03:04:41;12.00;99.20
10986;DHT22;5546;48.714;8.738;2022-11-18T03:07:29;11.90;99.60
10986;DHT22;5546;48.714;8.738;2022-11-18T03:09:56;11.90;99.40
10986;DHT22;5546;48.714;8.738;2022-11-18T03:12:35;11.80;99.60
10986;DHT22;5546;48.714;8.738;2022-11-18T03:15:33;11.90;99.30
10986;DHT22;5546;48.714;8.738;2022-11-18T03:20:34;12.00;99.60
10986;DHT22;5546;48.714;8.738;2022-11-18T03:23:24;12.00;99.10
10986;DHT22;5546;48.714;8.738;2022-11-18T03:26:08;12.00;99.50
10986;DHT22;5546;48.714;8.738;2022-11-18T03:28:55;12.00;99.60
10986;DHT22;5546;48.714;8.738;2022-11-18T03:31:46;12.10;99.10
10986;DHT22;5546;48.714;8.738;2022-11-18T03:34:33;12.20;99.40
10986;DHT22;5546;48.714;8.738;2022-11-18T03:37:03;12.10;99.40
10986;DHT22;5546;48.714;8.738;2022-11-18T03:39:32;11.70;99.50
10986;DHT22;5546;48.714;8.738;2022-11-18T03:44:42;11.80;99.50
10986;DHT22;5546;48.714;8.738;2022-11-18T03:47:13;11.70;99.00
10986;DHT22;5546;48.714;8.738;2022-11-18T03:49:44;11.60;98.50
10986;DHT22;5546;48.714;8.738;2022-11-18T03:52:14;11.50;99.10
10986;DHT22;5546;48.714;8.738;2022-11-18T03:54:43;11.60;98.70
10986;DHT22;5546;48.714;8.738;2022-11-18T03:57:52;11.50;98.80
10986;DHT22;5546;48.714;8.738;2022-11-18T04:00:16;11.60;98.40
10986;DHT22;5546;48.714;8.738;2022-11-18T04:02:42;11.00;99.10
10986;DHT22;5546;48.714;8.738;2022-11-18T04:05:11;11.00;99.50
10986;DHT22;5546;48.714;8.738;2022-11-18T04:07:58;13.80;99.80
10986;DHT22;5546;48.714;8.738;2022-11-18T04:10:35;11.20;98.60
10986;DHT22;5546;48.714;8.738;2022-11-18T04:13:09;11.20;98.70
10986;DHT22;5546;48.714;8.738;2022-11-18T04:15:40;11.20;99.00
10986;DHT22;5546;48.714;8.738;2022-11-18T04:18:06;11.40;98.40
10986;DHT22;5546;48.714;8.738;2022-11-18T04:20:32;11.40;98.60
10986;DHT22;5546;48.714;8.738;2022-11-18T04:22:58;11.60;98.20
10986;DHT22;5546;48.714;8.738;2022-11-18T04:25:24;14.90;99.70
10986;DHT22;5546;48.714;8.738;2022-11-18T04:27:50;11.20;98.80
10986;DHT22;5546;48.714;8.738;2022-11-18T04:30:16;11.30;98.60
10986;DHT22;5546;48.714;8.738;2022-11-18T04:32:41;11.20;98.80
10986;DHT22;5546;48.714;8.738;2022-11-18T04:35:07;11.40;98.70
10986;DHT22;5546;48.714;8.738;2022-11-18T04:37:33;11.30;98.60
10986;DHT22;5546;48.714;8.738;2022-11-18T04:39:59;11.20;98.70
10986;DHT22;5546;48.714;8.738;2022-11-18T04:42:25;11.00;98.70
10986;DHT22;5546;48.714;8.738;2022-11-18T04:44:50;11.00;99.10
10986;DHT22;5546;48.714;8.738;2022-11-18T04:47:16;11.20;98.90
10986;DHT22;5546;48.714;8.738;2022-11-18T04:49:41;11.10;98.90
10986;DHT22;5546;48.714;8.738;2022-11-18T04:52:08;10.90;99.00
10986;DHT22;5546;48.714;8.738;2022-11-18T04:54:34;10.90;99.30
10986;DHT22;5546;48.714;8.738;2022-11-18T04:56:59;11.10;99.10
10986;DHT22;5546;48.714;8.738;2022-11-18T04:59:27;11.10;99.10
10986;DHT22;5546;48.714;8.738;2022-11-18T05:01:53;11.10;98.90
10986;DHT22;5546;48.714;8.738;2022-11-18T05:04:25;11.10;99.10
10986;DHT22;5546;48.714;8.738;2022-11-18T05:06:52;11.20;99.20
10986;DHT22;5546;48.714;8.738;2022-11-18T05:09:18;11.00;99.20
10986;DHT22;5546;48.714;8.738;2022-11-18T05:11:44;11.00;99.30
10986;DHT22;5546;48.714;8.738;2022-11-18T05:14:29;11.30;98.50
10986;DHT22;5546;48.714;8.738;2022-11-18T05:16:56;11.30;98.80
10986;DHT22;5546;48.714;8.738;2022-11-18T05:19:22;11.30;99.00
10986;DHT22;5546;48.714;8.738;2022-11-18T05:21:47;11.30;98.40
10986;DHT22;5546;48.714;8.738;2022-11-18T05:24:13;11.30;98.70
10986;DHT22;5546;48.714;8.738;2022-11-18T05:26:39;11.40;98.00
10986;DHT22;5546;48.714;8.738;2022-11-18T05:29:04;11.40;98.30
10986;DHT22;5546;48.714;8.738;2022-11-18T05:31:30;11.20;98.40
10986;DHT22;5546;48.714;8.738;2022-11-18T05:33:56;11.20;98.70
10986;DHT22;5546;48.714;8.738;2022-11-18T05:36:22;11.30;98.70
10986;DHT22;5546;48.714;8.738;2022-11-18T05:38:48;11.30;98.60
10986;DHT22;5546;48.714;8.738;2022-11-18T05:41:14;11.20;98.70
10986;DHT22;5546;48.714;8.738;2022-11-18T05:43:59;11.00;98.70
10986;DHT22;5546;48.714;8.738;2022-11-18T05:46:25;11.00;99.00
10986;DHT22;5546;48.714;8.738;2022-11-18T05:48:51;11.20;98.50
10986;DHT22;5546;48.714;8.738;2022-11-18T05:51:17;11.20;98.40
10986;DHT22;5546;48.714;8.738;2022-11-18T05:53:42;11.20;98.60
10986;DHT22;5546;48.714;8.738;2022-11-18T05:58:39;10.90;99.10
10986;DHT22;5546;48.714;8.738;2022-11-18T06:01:06;10.90;98.80
10986;DHT22;5546;48.714;8.738;2022-11-18T06:03:36;10.90;99.10
10986;DHT22;5546;48.714;8.738;2022-11-18T06:06:03;10.90;99.20
10986;DHT22;5546;48.714;8.738;2022-11-18T06:08:37;10.90;99.40
10986;DHT22;5546;48.714;8.738;2022-11-18T06:13:37;9.80;99.90
10986;DHT22;5546;48.714;8.738;2022-11-18T06:16:04;10.40;99.90
10986;DHT22;5546;48.714;8.738;2022-11-18T06:18:31;10.50;99.90
10986;DHT22;5546;48.714;8.738;2022-11-18T06:21:03;10.30;99.80
10986;DHT22;5546;48.714;8.738;2022-11-18T06:23:34;10.30;99.90
10986;DHT22;5546;48.714;8.738;2022-11-18T06:26:00;10.40;99.80
10986;DHT22;5546;48.714;8.738;2022-11-18T06:28:26;10.50;99.70
10986;DHT22;5546;48.714;8.738;2022-11-18T06:30:52;9.90;99.90
10986;DHT22;5546;48.714;8.738;2022-11-18T06:33:18;9.90;99.90
10986;DHT22;5546;48.714;8.738;2022-11-18T06:35:44;10.10;99.90
10986;DHT22;5546;48.714;8.738;2022-11-18T06:38:09;10.30;99.90
10986;DHT22;5546;48.714;8.738;2022-11-18T06:40:35;10.30;99.90
10986;DHT22;5546;48.714;8.738;2022-11-18T06:43:09;10.20;99.90
10986;DHT22;5546;48.714;8.738;2022-11-18T06:46:00;9.80;99.90
10986;DHT22;5546;48.714;8.738;2022-11-18T06:48:52;9.90;99.90
10986;DHT22;5546;48.714;8.738;2022-11-18T06:51:17;9.70;99.90
10986;DHT22;5546;48.714;8.738;2022-11-18T06:53:43;9.80;99.90
10986;DHT22;5546;48.714;8.738;2022-11-18T06:56:11;10.20;99.90
10986;DHT22;5546;48.714;8.738;2022-11-18T06:58:37;10.60;99.90
10986;DHT22;5546;48.714;8.738;2022-11-18T07:01:20;10.70;99.90
10986;DHT22;5546;48.714;8.738;2022-11-18T07:03:47;10.80;99.90
10986;DHT22;5546;48.714;8.738;2022-11-18T07:06:19;10.80;99.90
10986;DHT22;5546;48.714;8.738;2022-11-18T07:08:45;11.00;99.40
10986;DHT22;5546;48.714;8.738;2022-11-18T07:11:13;11.10;99.60
10986;DHT22;5546;48.714;8.738;2022-11-18T07:13:39;11.30;98.70
10986;DHT22;5546;48.714;8.738;2022-11-18T07:18:33;11.30;98.50
10986;DHT22;5546;48.714;8.738;2022-11-18T07:21:01;11.30;98.70
10986;DHT22;5546;48.714;8.738;2022-11-18T07:23:31;11.40;98.90
10986;DHT22;5546;48.714;8.738;2022-11-18T07:25:57;11.30;98.90
10986;DHT22;5546;48.714;8.738;2022-11-18T07:28:23;11.40;99.30
10986;DHT22;5546;48.714;8.738;2022-11-18T07:30:49;11.40;99.10
10986;DHT22;5546;48.714;8.738;2022-11-18T07:33:14;11.60;98.70
10986;DHT22;5546;48.714;8.738;2022-11-18T07:35:40;11.50;98.70
10986;DHT22;5546;48.714;8.738;2022-11-18T07:38:05;11.50;98.70
10986;DHT22;5546;48.714;8.738;2022-11-18T07:40:31;11.40;98.90
10986;DHT22;5546;48.714;8.738;2022-11-18T07:42:56;11.40;99.30
10986;DHT22;5546;48.714;8.738;2022-11-18T07:47:48;11.70;98.60
10986;DHT22;5546;48.714;8.738;2022-11-18T07:50:15;12.00;98.40
10986;DHT22;5546;48.714;8.738;2022-11-18T07:52:41;12.00;98.10
10986;DHT22;5546;48.714;8.738;2022-11-18T07:55:06;11.90;98.20
10986;DHT22;5546;48.714;8.738;2022-11-18T07:57:32;11.80;98.00
10986;DHT22;5546;48.714;8.738;2022-11-18T07:59:58;11.90;98.30
10986;DHT22;5546;48.714;8.738;2022-11-18T08:02:23;11.90;98.60
10986;DHT22;5546;48.714;8.738;2022-11-18T08:04:48;12.20;98.00
10986;DHT22;5546;48.714;8.738;2022-11-18T08:07:14;12.20;98.20
10986;DHT22;5546;48.714;8.738;2022-11-18T08:09:39;12.30;98.20
10986;DHT22;5546;48.714;8.738;2022-11-18T08:12:05;12.00;98.40
10986;DHT22;5546;48.714;8.738;2022-11-18T08:14:31;12.00;98.50
10986;DHT22;5546;48.714;8.738;2022-11-18T08:16:56;12.00;98.40
10986;DHT22;5546;48.714;8.738;2022-11-18T08:19:22;12.00;98.50
10986;DHT22;5546;48.714;8.738;2022-11-18T08:21:47;12.00;98.40
10986;DHT22;5546;48.714;8.738;2022-11-18T08:24:13;11.50;98.70
10986;DHT22;5546;48.714;8.738;2022-11-18T08:26:38;11.50;98.90
10986;DHT22;5546;48.714;8.738;2022-11-18T08:29:04;11.80;99.20
10986;DHT22;5546;48.714;8.738;2022-11-18T08:31:30;11.90;98.70
10986;DHT22;5546;48.714;8.738;2022-11-18T08:33:57;11.90;98.60
10986;DHT22;5546;48.714;8.738;2022-11-18T08:36:25;12.10;98.70
10986;DHT22;5546;48.714;8.738;2022-11-18T08:38:50;12.30;98.50
10986;DHT22;5546;48.714;8.738;2022-11-18T08:41:20;12.30;98.80
10986;DHT22;5546;48.714;8.738;2022-11-18T08:43:48;12.30;98.50
10986;DHT22;5546;48.714;8.738;2022-11-18T08:46:14;11.70;98.30
10986;DHT22;5546;48.714;8.738;2022-11-18T08:48:39;11.00;99.70
10986;DHT22;5546;48.714;8.738;2022-11-18T08:51:05;10.90;99.40
10986;DHT22;5546;48.714;8.738;2022-11-18T08:53:32;10.60;99.90
10986;DHT22;5546;48.714;8.738;2022-11-18T08:55:59;10.60;99.90
10986;DHT22;5546;48.714;8.738;2022-11-18T08:58:26;10.90;99.90
10986;DHT22;5546;48.714;8.738;2022-11-18T09:00:52;10.90;99.90
10986;DHT22;5546;48.714;8.738;2022-11-18T09:03:17;10.40;99.90
10986;DHT22;5546;48.714;8.738;2022-11-18T09:05:43;10.50;99.90
10986;DHT22;5546;48.714;8.738;2022-11-18T09:08:09;10.50;99.90
10986;DHT22;5546;48.714;8.738;2022-11-18T09:10:36;10.60;99.90
10986;DHT22;5546;48.714;8.738;2022-11-18T09:13:02;10.70;99.90
10986;DHT22;5546;48.714;8.738;2022-11-18T09:15:27;10.70;99.90
10986;DHT22;5546;48.714;8.738;2022-11-18T09:17:55;10.60;99.90
10986;DHT22;5546;48.714;8.738;2022-11-18T09:20:21;10.80;99.90
10986;DHT22;5546;48.714;8.738;2022-11-18T09:22:46;11.30;99.90
10986;DHT22;5546;48.714;8.738;2022-11-18T09:25:12;11.30;99.90
10986;DHT22;5546;48.714;8.738;2022-11-18T09:27:37;11.80;99.90
10986;DHT22;5546;48.714;8.738;2022-11-18T09:30:03;12.00;99.80
10986;DHT22;5546;48.714;8.738;2022-11-18T09:32:29;12.30;99.00
10986;DHT22;5546;48.714;8.738;2022-11-18T09:34:54;12.30;99.30
10986;DHT22;5546;48.714;8.738;2022-11-18T09:37:20;11.60;99.60
10986;DHT22;5546;48.714;8.738;2022-11-18T09:39:46;11.60;99.90
10986;DHT22;5546;48.714;8.738;2022-11-18T09:42:34;11.30;99.90
10986;DHT22;5546;48.714;8.738;2022-11-18T09:45:12;11.70;99.90
10986;DHT22;5546;48.714;8.738;2022-11-18T09:47:42;12.10;99.90
10986;DHT22;5546;48.714;8.738;2022-11-18T09:50:18;12.10;99.90
10986;DHT22;5546;48.714;8.738;2022-11-18T09:55:18;12.40;99.80
10986;DHT22;5546;48.714;8.738;2022-11-18T09:57:50;12.80;99.90
10986;DHT22;5546;48.714;8.738;2022-11-18T10:00:19;13.30;99.10
10986;DHT22;5546;48.714;8.738;2022-11-18T10:05:47;13.90;98.20
10986;DHT22;5546;48.714;8.738;2022-11-18T10:08:25;14.10;97.50
10986;DHT22;5546;48.714;8.738;2022-11-18T10:11:13;14.40;96.80
10986;DHT22;5546;48.714;8.738;2022-11-18T10:16:47;14.40;97.10
10986;DHT22;5546;48.714;8.738;2022-11-18T10:23:06;13.40;96.70
10986;DHT22;5546;48.714;8.738;2022-11-18T10:25:24;13.50;96.70
10986;DHT22;5546;48.714;8.738;2022-11-18T10:27:50;13.80;96.40
10986;DHT22;5546;48.714;8.738;2022-11-18T10:30:24;13.80;96.70
10986;DHT22;5546;48.714;8.738;2022-11-18T10:32:55;14.20;96.30
10986;DHT22;5546;48.714;8.738;2022-11-18T10:35:28;14.20;96.40
10986;DHT22;5546;48.714;8.738;2022-11-18T10:38:03;14.90;95.00
10986;DHT22;5546;48.714;8.738;2022-11-18T10:40:30;14.90;95.20
10986;DHT22;5546;48.714;8.738;2022-11-18T10:42:56;14.70;95.00
10986;DHT22;5546;48.714;8.738;2022-11-18T10:53:06;14.70;94.10
10986;DHT22;5546;48.714;8.738;2022-11-18T10:56:00;16.10;92.30
10986;DHT22;5546;48.714;8.738;2022-11-18T10:58:28;16.10;92.40
10986;DHT22;5546;48.714;8.738;2022-11-18T11:01:05;16.90;90.80
10986;DHT22;5546;48.714;8.738;2022-11-18T11:03:37;16.50;91.10
10986;DHT22;5546;48.714;8.738;2022-11-18T11:09:27;15.80;92.00
10986;DHT22;5546;48.714;8.738;2022-11-18T11:11:58;15.10;92.60
10986;DHT22;5546;48.714;8.738;2022-11-18T11:14:47;15.20;93.00
10986;DHT22;5546;48.714;8.738;2022-11-18T11:17:26;15.70;92.50
10986;DHT22;5546;48.714;8.738;2022-11-18T11:20:10;15.50;92.00
10986;DHT22;5546;48.714;8.738;2022-11-18T11:22:38;15.30;92.30
10986;DHT22;5546;48.714;8.738;2022-11-18T11:28:00;15.40;92.60
10986;DHT22;5546;48.714;8.738;2022-11-18T11:30:34;15.10;93.30
10986;DHT22;5546;48.714;8.738;2022-11-18T11:36:15;14.30;92.10
10986;DHT22;5546;48.714;8.738;2022-11-18T11:41:53;14.50;94.40
10986;DHT22;5546;48.714;8.738;2022-11-18T11:44:47;14.90;94.10
10986;DHT22;5546;48.714;8.738;2022-11-18T11:50:21;14.90;92.00
10986;DHT22;5546;48.714;8.738;2022-11-18T11:56:02;14.90;93.60
10986;DHT22;5546;48.714;8.738;2022-11-18T12:06:51;15.40;92.20
10986;DHT22;5546;48.714;8.738;2022-11-18T12:12:19;15.20;92.20
10986;DHT22;5546;48.714;8.738;2022-11-18T12:18:09;15.60;92.70
10986;DHT22;5546;48.714;8.738;2022-11-18T12:20:45;15.30;90.80
10986;DHT22;5546;48.714;8.738;2022-11-18T12:23:21;15.00;91.20
10986;DHT22;5546;48.714;8.738;2022-11-18T12:28:31;15.00;91.80
10986;DHT22;5546;48.714;8.738;2022-11-18T12:33:52;15.20;91.70
10986;DHT22;5546;48.714;8.738;2022-11-18T12:38:54;15.90;91.40
10986;DHT22;5546;48.714;8.738;2022-11-18T12:42:02;15.90;91.70
10986;DHT22;5546;48.714;8.738;2022-11-18T12:44:51;16.00;90.30
10986;DHT22;5546;48.714;8.738;2022-11-18T12:50:11;15.20;90.00
10986;DHT22;5546;48.714;8.738;2022-11-18T12:55:14;14.70;91.40
10986;DHT22;5546;48.714;8.738;2022-11-18T12:57:40;14.70;91.60
10986;DHT22;5546;48.714;8.738;2022-11-18T13:02:51;14.20;92.20
10986;DHT22;5546;48.714;8.738;2022-11-18T13:05:29;14.30;93.10
10986;DHT22;5546;48.714;8.738;2022-11-18T13:08:05;14.20;92.30
10986;DHT22;5546;48.714;8.738;2022-11-18T13:10:45;14.30;92.50
10986;DHT22;5546;48.714;8.738;2022-11-18T13:15:47;14.30;92.60
10986;DHT22;5546;48.714;8.738;2022-11-18T13:18:32;14.40;93.00
10986;DHT22;5546;48.714;8.738;2022-11-18T13:20:59;14.30;91.80
10986;DHT22;5546;48.714;8.738;2022-11-18T13:23:45;14.30;92.30
10986;DHT22;5546;48.714;8.738;2022-11-18T13:26:23;14.20;92.20
10986;DHT22;5546;48.714;8.738;2022-11-18T13:29:07;14.10;92.50
10986;DHT22;5546;48.714;8.738;2022-11-18T13:34:20;14.20;92.40
10986;DHT22;5546;48.714;8.738;2022-11-18T13:36:49;13.90;93.90
10986;DHT22;5546;48.714;8.738;2022-11-18T13:39:23;13.70;94.80
10986;DHT22;5546;48.714;8.738;2022-11-18T13:44:31;13.50;94.80
10986;DHT22;5546;48.714;8.738;2022-11-18T13:55:25;13.90;94.30
10986;DHT22;5546;48.714;8.738;2022-11-18T13:58:03;13.90;94.60
10986;DHT22;5546;48.714;8.738;2022-11-18T14:00:33;14.20;94.40
10986;DHT22;5546;48.714;8.738;2022-11-18T14:03:02;14.40;94.10
10986;DHT22;5546;48.714;8.738;2022-11-18T14:05:28;14.40;94.30
10986;DHT22;5546;48.714;8.738;2022-11-18T14:08:01;14.40;94.80
10986;DHT22;5546;48.714;8.738;2022-11-18T14:10:32;14.50;94.60
10986;DHT22;5546;48.714;8.738;2022-11-18T14:13:00;14.10;94.20
10986;DHT22;5546;48.714;8.738;2022-11-18T14:17:56;14.00;95.00
10986;DHT22;5546;48.714;8.738;2022-11-18T14:20:24;13.80;95.10
10986;DHT22;5546;48.714;8.738;2022-11-18T14:22:56;13.60;95.70
10986;DHT22;5546;48.714;8.738;2022-11-18T14:27:52;13.30;95.30
10986;DHT22;5546;48.714;8.738;2022-11-18T14:30:29;12.80;95.90
10986;DHT22;5546;48.714;8.738;2022-11-18T14:33:12;12.80;95.70
10986;DHT22;5546;48.714;8.738;2022-11-18T14:35:40;12.60;96.30
10986;DHT22;5546;48.714;8.738;2022-11-18T14:38:58;12.60;96.60
10986;DHT22;5546;48.714;8.738;2022-11-18T14:41:03;12.30;96.60
10986;DHT22;5546;48.714;8.738;2022-11-18T14:43:30;12.20;96.70
10986;DHT22;5546;48.714;8.738;2022-11-18T14:45:58;11.20;98.50
10986;DHT22;5546;48.714;8.738;2022-11-18T14:48:26;11.30;98.60
10986;DHT22;5546;48.714;8.738;2022-11-18T14:50:52;11.30;98.50
10986;DHT22;5546;48.714;8.738;2022-11-18T14:53:18;11.40;98.40
10986;DHT22;5546;48.714;8.738;2022-11-18T14:55:45;11.10;98.50
10986;DHT22;5546;48.714;8.738;2022-11-18T14:58:13;11.10;98.70
10986;DHT22;5546;48.714;8.738;2022-11-18T15:00:42;11.30;98.30
10986;DHT22;5546;48.714;8.738;2022-11-18T15:03:08;11.40;98.00
10986;DHT22;5546;48.714;8.738;2022-11-18T15:05:34;11.50;98.20
10986;DHT22;5546;48.714;8.738;2022-11-18T15:07:59;11.60;97.60
10986;DHT22;5546;48.714;8.738;2022-11-18T15:10:25;11.50;97.90
10986;DHT22;5546;48.714;8.738;2022-11-18T15:12:51;11.30;98.20
10986;DHT22;5546;48.714;8.738;2022-11-18T15:15:16;11.20;98.60
10986;DHT22;5546;48.714;8.738;2022-11-18T15:17:42;11.30;97.80
10986;DHT22;5546;48.714;8.738;2022-11-18T15:20:11;11.30;98.10
10986;DHT22;5546;48.714;8.738;2022-11-18T15:22:38;11.20;98.40
10986;DHT22;5546;48.714;8.738;2022-11-18T15:25:04;11.20;98.20
10986;DHT22;5546;48.714;8.738;2022-11-18T15:27:30;11.30;98.00
10986;DHT22;5546;48.714;8.738;2022-11-18T15:29:56;11.30;97.60
10986;DHT22;5546;48.714;8.738;2022-11-18T15:32:21;11.30;97.70
10986;DHT22;5546;48.714;8.738;2022-11-18T15:34:47;11.40;98.00
10986;DHT22;5546;48.714;8.738;2022-11-18T15:37:13;11.70;97.30
10986;DHT22;5546;48.714;8.738;2022-11-18T15:39:38;11.10;97.60
10986;DHT22;5546;48.714;8.738;2022-11-18T15:42:04;11.00;97.70
10986;DHT22;5546;48.714;8.738;2022-11-18T15:44:30;10.90;97.80
10986;DHT22;5546;48.714;8.738;2022-11-18T15:46:55;11.10;97.40
10986;DHT22;5546;48.714;8.738;2022-11-18T15:49:21;11.20;97.10
10986;DHT22;5546;48.714;8.738;2022-11-18T15:51:47;11.20;97.40
10986;DHT22;5546;48.714;8.738;2022-11-18T15:54:13;10.80;97.70
10986;DHT22;5546;48.714;8.738;2022-11-18T15:59:12;10.80;97.90
10986;DHT22;5546;48.714;8.738;2022-11-18T16:01:43;10.80;97.40
10986;DHT22;5546;48.714;8.738;2022-11-18T16:04:11;10.80;97.70
10986;DHT22;5546;48.714;8.738;2022-11-18T16:06:37;11.00;97.60
10986;DHT22;5546;48.714;8.738;2022-11-18T16:09:04;10.70;97.80
10986;DHT22;5546;48.714;8.738;2022-11-18T16:11:30;10.40;98.40
10986;DHT22;5546;48.714;8.738;2022-11-18T16:14:16;10.40;98.20
10986;DHT22;5546;48.714;8.738;2022-11-18T16:16:43;10.50;97.80
10986;DHT22;5546;48.714;8.738;2022-11-18T16:19:12;10.40;97.80
10986;DHT22;5546;48.714;8.738;2022-11-18T16:21:41;10.40;98.20
10986;DHT22;5546;48.714;8.738;2022-11-18T16:24:10;10.20;98.50
10986;DHT22;5546;48.714;8.738;2022-11-18T16:26:36;10.30;98.80
10986;DHT22;5546;48.714;8.738;2022-11-18T16:29:03;10.30;98.40
10986;DHT22;5546;48.714;8.738;2022-11-18T16:31:29;10.30;98.60
10986;DHT22;5546;48.714;8.738;2022-11-18T16:34:10;10.60;97.60
10986;DHT22;5546;48.714;8.738;2022-11-18T16:36:38;10.60;98.00
10986;DHT22;5546;48.714;8.738;2022-11-18T16:39:24;10.20;98.70
10986;DHT22;5546;48.714;8.738;2022-11-18T16:41:55;10.10;99.20
10986;DHT22;5546;48.714;8.738;2022-11-18T16:44:21;10.10;99.20
10986;DHT22;5546;48.714;8.738;2022-11-18T16:46:52;9.90;98.80
10986;DHT22;5546;48.714;8.738;2022-11-18T16:49:21;9.90;99.20
10986;DHT22;5546;48.714;8.738;2022-11-18T16:51:49;10.10;98.80
10986;DHT22;5546;48.714;8.738;2022-11-18T16:54:18;10.20;98.90
10986;DHT22;5546;48.714;8.738;2022-11-18T16:56:45;10.20;98.20
10986;DHT22;5546;48.714;8.738;2022-11-18T16:59:16;10.20;98.40
10986;DHT22;5546;48.714;8.738;2022-11-18T17:01:42;10.20;98.20
10986;DHT22;5546;48.714;8.738;2022-11-18T17:04:08;10.10;98.50
10986;DHT22;5546;48.714;8.738;2022-11-18T17:06:36;10.20;97.90
10986;DHT22;5546;48.714;8.738;2022-11-18T17:09:02;9.90;98.30
10986;DHT22;5546;48.714;8.738;2022-11-18T17:11:27;9.90;98.60
10986;DHT22;5546;48.714;8.738;2022-11-18T17:13:53;9.90;98.00
10986;DHT22;5546;48.714;8.738;2022-11-18T17:16:20;10.00;98.30
10986;DHT22;5546;48.714;8.738;2022-11-18T17:18:46;10.10;98.00
10986;DHT22;5546;48.714;8.738;2022-11-18T17:21:16;9.90;98.10
10986;DHT22;5546;48.714;8.738;2022-11-18T17:23:44;10.20;97.50
10986;DHT22;5546;48.714;8.738;2022-11-18T17:26:10;10.20;97.80
10986;DHT22;5546;48.714;8.738;2022-11-18T17:28:36;10.00;97.80
10986;DHT22;5546;48.714;8.738;2022-11-18T17:31:09;10.00;98.00
10986;DHT22;5546;48.714;8.738;2022-11-18T17:33:36;10.00;98.10
10986;DHT22;5546;48.714;8.738;2022-11-18T17:36:07;10.00;98.30
10986;DHT22;5546;48.714;8.738;2022-11-18T17:38:34;10.10;98.00
10986;DHT22;5546;48.714;8.738;2022-11-18T17:41:00;10.30;98.30
10986;DHT22;5546;48.714;8.738;2022-11-18T17:43:27;10.30;98.30
10986;DHT22;5546;48.714;8.738;2022-11-18T17:45:54;10.20;98.10
10986;DHT22;5546;48.714;8.738;2022-11-18T17:48:21;10.20;98.40
10986;DHT22;5546;48.714;8.738;2022-11-18T17:50:47;10.60;97.40
10986;DHT22;5546;48.714;8.738;2022-11-18T17:53:14;10.60;97.00
10986;DHT22;5546;48.714;8.738;2022-11-18T17:55:40;10.40;97.40
10986;DHT22;5546;48.714;8.738;2022-11-18T17:58:06;10.00;98.00